Time;durP1;ratioP1;P1;durP2;ratioP2;P2;SDS_P1;SDS_P2;PMS_P1;PMS_P2;Temp;Humidity;BMP_temperature;BMP_pressure;BME280_temperature;BME280_humidity;BME280_pressure;Samples;Min_cycle;Max_cycle;Signal;HPM_P1;HPM_P2
2024/02/09 00:00:12;;;;;;;12.80;7.20;;;;;;;22.14;31.59;100028.89;103498;1297;72539;-82
2024/02/09 00:02:41;;;;;;;13.20;7.90;;;;;;;22.14;31.73;100029.25;103391;1294;74596;-82
2024/02/09 00:05:09;;;;;;;15.80;7.70;;;;;;;22.14;31.55;100028.04;103446;1294;61436;-82
2024/02/09 00:07:35;;;;;;;12.80;7.40;;;;;;;22.14;31.66;100028.04;103447;1294;61306;-82
2024/02/09 00:10:01;;;;;;;15.80;7.50;;;;;;;22.14;31.73;100024.84;103455;1294;61336;-82
2024/02/09 00:12:27;;;;;;;14.70;7.80;;;;;;;22.13;31.60;100030.77;103487;1293;61400;-82
2024/02/09 00:14:53;;;;;;;12.70;7.10;;;;;;;22.14;31.67;100027.89;103669;1293;61298;-82
2024/02/09 00:17:18;;;;;;;13.90;7.70;;;;;;;22.13;31.63;100028.29;103573;1294;61401;-82
2024/02/09 00:19:46;;;;;;;13.70;7.10;;;;;;;22.13;31.81;100021.45;103836;1298;62963;-82
2024/02/09 00:22:12;;;;;;;15.90;8.00;;;;;;;22.13;31.69;100024.33;103355;1294;61364;-82
2024/02/09 00:24:42;;;;;;;13.10;7.10;;;;;;;22.13;31.75;100021.52;103583;1294;61495;-82
2024/02/09 00:27:11;;;;;;;12.30;7.00;;;;;;;22.13;31.73;100024.39;103430;1293;61390;-82
2024/02/09 00:29:37;;;;;;;13.80;7.60;;;;;;;22.12;31.61;100024.94;103470;1294;72509;-82
2024/02/09 00:32:04;;;;;;;12.90;7.70;;;;;;;22.12;31.60;100025.69;103507;1294;61277;-82
2024/02/09 00:34:33;;;;;;;13.50;7.50;;;;;;;22.12;31.64;100027.83;103606;1294;61590;-82
2024/02/09 00:37:00;;;;;;;13.10;7.30;;;;;;;22.12;31.64;100026.42;103606;1294;61352;-82
2024/02/09 00:39:26;;;;;;;13.40;7.50;;;;;;;22.12;31.70;100027.49;103652;1294;72592;-82
2024/02/09 00:41:53;;;;;;;14.00;7.10;;;;;;;22.12;31.64;100032.33;103455;1294;74387;-82
2024/02/09 00:44:18;;;;;;;11.60;6.70;;;;;;;22.12;31.62;100024.64;103529;1294;61291;-82
2024/02/09 00:46:46;;;;;;;12.60;7.20;;;;;;;22.11;31.75;100024.66;103712;1294;61378;-82
2024/02/09 00:49:13;;;;;;;13.70;7.50;;;;;;;22.11;31.73;100023.41;103655;1293;71400;-82
2024/02/09 00:51:48;;;;;;;14.30;7.30;;;;;;;22.11;31.65;100020.02;103623;1298;61423;-82
2024/02/09 00:54:14;;;;;;;13.00;7.10;;;;;;;22.11;31.56;100015.91;103666;1294;61244;-82
2024/02/09 00:56:41;;;;;;;13.30;6.80;;;;;;;22.11;31.77;100013.22;103466;1294;61267;-82
2024/02/09 00:59:07;;;;;;;10.90;7.10;;;;;;;22.10;31.63;100007.55;103420;1293;71694;-80
2024/02/09 01:01:33;;;;;;;12.70;7.40;;;;;;;22.11;31.65;100001.80;103407;1294;61799;-81
2024/02/09 01:04:04;;;;;;;13.90;7.10;;;;;;;22.10;31.64;99999.50;103591;1294;61459;-80
2024/02/09 01:06:30;;;;;;;12.50;7.00;;;;;;;22.10;31.67;100001.11;103769;1294;61476;-81
2024/02/09 01:08:55;;;;;;;12.20;7.20;;;;;;;22.10;31.75;99998.98;103597;1294;61418;-81
2024/02/09 01:11:21;;;;;;;12.20;7.40;;;;;;;22.09;31.73;99999.36;103621;1293;61415;-81
2024/02/09 02:46:52;;;;;;;11.50;6.60;;;;;;;22.00;31.63;100024.02;103735;1293;61424;-82
2024/02/09 03:05:44;;;;;;;11.90;6.40;;;;;;;21.99;31.49;100038.66;103425;1294;62067;-81
2024/02/09 03:08:10;;;;;;;12.40;6.40;;;;;;;21.99;31.67;100041.16;103620;1293;61397;-81
2024/02/09 03:10:36;;;;;;;10.70;6.60;;;;;;;21.99;31.59;100039.34;103747;1294;62217;-81
2024/02/09 03:13:02;;;;;;;12.10;6.40;;;;;;;22.00;31.65;100039.31;103411;1294;61254;-81
2024/02/09 03:15:28;;;;;;;10.70;6.50;;;;;;;21.99;31.68;100033.42;103402;1293;61369;-81
2024/02/09 03:17:53;;;;;;;10.60;6.40;;;;;;;21.99;31.67;100027.38;103788;1298;61495;-81
2024/02/09 03:20:19;;;;;;;10.00;6.10;;;;;;;22.00;31.81;100034.48;103433;1294;61437;-81
2024/02/09 03:22:45;;;;;;;10.20;6.20;;;;;;;21.99;31.64;100035.98;103414;1293;74539;-81
2024/02/09 03:25:11;;;;;;;10.80;7.00;;;;;;;21.99;31.68;100035.61;103351;1294;61380;-81
2024/02/09 03:27:40;;;;;;;10.70;6.30;;;;;;;21.99;31.64;100028.27;103447;1294;61862;-81
2024/02/09 03:30:07;;;;;;;11.30;6.30;;;;;;;21.99;31.46;100029.50;103609;1294;72573;-82
2024/02/09 03:32:34;;;;;;;10.60;6.70;;;;;;;21.99;31.49;100026.13;103401;1299;74327;-81
2024/02/09 03:35:01;;;;;;;11.40;6.70;;;;;;;21.99;31.51;100022.39;103361;1298;62212;-82
2024/02/09 03:37:27;;;;;;;13.30;7.10;;;;;;;21.98;31.50;100022.23;103421;1297;61373;-81
2024/02/09 03:39:53;;;;;;;10.00;6.10;;;;;;;21.99;31.54;100021.31;103623;1294;61456;-81
2024/02/09 03:42:23;;;;;;;9.70;6.10;;;;;;;21.98;31.55;100019.57;103650;1294;61334;-81
2024/02/09 03:44:57;;;;;;;10.30;6.50;;;;;;;21.98;31.60;100021.15;103579;1294;61233;-81
2024/02/09 03:47:24;;;;;;;10.80;6.40;;;;;;;21.98;31.55;100017.77;103662;1294;62048;-81
2024/02/09 03:50:04;;;;;;;10.00;6.30;;;;;;;21.98;31.50;100016.88;103571;1294;72322;-81
2024/02/09 03:52:30;;;;;;;11.00;6.70;;;;;;;21.97;31.63;100013.00;103593;1294;74471;-82
2024/02/09 04:08:07;;;;;;;10.20;6.70;;;;;;;22.64;30.89;100019.31;103294;1285;614163;-79
2024/02/09 04:10:33;;;;;;;12.30;6.60;;;;;;;22.58;30.99;100017.52;103068;1283;182462;-80
2024/02/09 04:12:58;;;;;;;9.90;6.40;;;;;;;22.50;30.85;100013.60;103331;1291;60991;-80
2024/02/09 04:15:24;;;;;;;11.10;6.80;;;;;;;22.42;30.92;100005.84;103569;1283;59748;-80
2024/02/09 04:17:51;;;;;;;11.60;6.80;;;;;;;22.36;30.92;100003.48;103224;1283;60580;-79
2024/02/09 04:20:18;;;;;;;10.30;7.30;;;;;;;22.30;30.96;99999.89;103341;1283;59411;-78
2024/02/09 04:22:44;;;;;;;11.00;6.50;;;;;;;22.25;31.02;100001.40;103453;1286;59498;-80
2024/02/09 04:25:10;;;;;;;11.60;6.80;;;;;;;22.20;30.98;100002.56;103275;1286;59470;-80
2024/02/09 04:27:36;;;;;;;11.30;7.00;;;;;;;22.16;31.09;100009.03;103483;1288;60120;-77
2024/02/09 04:30:02;;;;;;;10.90;6.60;;;;;;;22.12;31.02;100015.63;103819;1284;59363;-79
2024/02/09 04:32:29;;;;;;;12.50;7.00;;;;;;;22.09;31.07;100018.06;103736;1285;60932;-79
2024/02/09 04:34:56;;;;;;;11.00;6.70;;;;;;;22.07;31.23;100019.34;103404;1285;59841;-80
2024/02/09 04:37:21;;;;;;;10.50;6.50;;;;;;;22.04;31.26;100022.09;103453;1286;59860;-80
2024/02/09 04:39:48;;;;;;;10.20;6.10;;;;;;;22.02;31.31;100025.09;103588;1285;59900;-80
2024/02/09 04:42:14;;;;;;;12.20;6.50;;;;;;;22.00;31.37;100024.38;103571;1286;59705;-79
2024/02/09 04:44:40;;;;;;;11.80;6.90;;;;;;;21.99;31.33;100025.60;103221;1289;60071;-78
2024/02/09 04:47:05;;;;;;;14.00;7.50;;;;;;;21.97;31.29;100026.30;103245;1285;59782;-81
2024/02/09 04:49:31;;;;;;;12.70;7.50;;;;;;;21.95;31.34;100022.66;103356;1286;59872;-79
2024/02/09 04:51:57;;;;;;;13.60;7.70;;;;;;;21.94;31.17;100022.42;103253;1290;59833;-80
2024/02/09 04:54:24;;;;;;;13.80;7.80;;;;;;;21.92;31.13;100018.10;103501;1286;60821;-80
2024/02/09 04:56:49;;;;;;;15.50;8.70;;;;;;;21.90;31.06;100016.84;103320;1286;61017;-78
2024/02/09 04:59:15;;;;;;;15.80;8.90;;;;;;;21.88;30.93;100015.61;103276;1285;59992;-81
2024/02/09 05:01:41;;;;;;;14.30;8.80;;;;;;;21.86;30.88;100018.30;103228;1285;72738;-80
2024/02/09 05:04:12;;;;;;;15.70;8.70;;;;;;;21.84;30.70;100024.85;103290;1288;60367;-79
2024/02/09 05:06:38;;;;;;;13.00;8.60;;;;;;;21.83;30.65;100021.41;103276;1285;60158;-80
2024/02/09 05:09:06;;;;;;;16.80;9.30;;;;;;;21.81;30.60;100022.67;103241;1285;59750;-80
2024/02/09 05:11:34;;;;;;;16.50;10.50;;;;;;;21.77;30.44;100028.71;103280;1286;73452;-80
2024/02/09 05:14:00;;;;;;;18.80;10.90;;;;;;;21.73;30.54;100024.23;103370;1285;73036;-81
2024/02/09 05:16:30;;;;;;;16.30;10.30;;;;;;;21.70;30.68;100028.94;103270;1288;60228;-80
2024/02/09 05:18:55;;;;;;;;;;;;;;;21.69;30.65;100032.81;103280;1285;61326;-79
2024/02/09 05:21:21;;;;;;;16.90;9.50;;;;;;;21.64;30.66;100030.73;103207;1286;59895;-78
2024/02/09 05:23:47;;;;;;;16.70;10.30;;;;;;;21.63;30.55;100029.21;103293;1285;61070;-79
2024/02/09 05:26:13;;;;;;;16.10;9.40;;;;;;;21.63;30.72;100026.73;103197;1291;60962;-79
2024/02/09 05:28:40;;;;;;;16.00;9.40;;;;;;;21.63;30.70;100025.45;103222;1285;59686;-80
2024/02/09 05:31:13;;;;;;;16.50;9.80;;;;;;;21.63;30.54;100021.90;103337;1285;60939;-82
2024/02/09 05:33:39;;;;;;;17.10;10.10;;;;;;;21.61;30.68;100023.23;103352;1286;73896;-80
2024/02/09 05:36:05;;;;;;;16.30;8.70;;;;;;;21.60;30.59;100024.80;103191;1288;59708;-81
2024/02/09 05:38:32;;;;;;;14.80;9.50;;;;;;;21.58;30.67;100023.57;103575;1289;60112;-81
2024/02/09 05:40:58;;;;;;;16.60;9.20;;;;;;;21.54;30.53;100026.91;103445;1285;61210;-79
2024/02/09 05:43:24;;;;;;;14.70;9.40;;;;;;;21.51;30.52;100030.55;103428;1291;59938;-81
2024/02/09 05:45:50;;;;;;;17.00;9.70;;;;;;;21.47;30.55;100033.20;103387;1285;60857;-80
2024/02/09 05:48:16;;;;;;;20.60;9.30;;;;;;;21.44;30.50;100034.17;103287;1294;61017;-80
2024/02/09 05:50:41;;;;;;;19.00;10.10;;;;;;;21.40;30.50;100032.89;103450;1291;59831;-80
2024/02/09 05:53:08;;;;;;;15.80;10.00;;;;;;;21.36;30.57;100039.12;103377;1286;60900;-80
2024/02/09 05:55:40;;;;;;;20.30;10.00;;;;;;;21.31;30.41;100044.75;103716;1286;72782;-83
2024/02/09 05:58:06;;;;;;;17.90;9.90;;;;;;;21.27;30.44;100042.61;104208;1286;61017;-79
2024/02/09 06:00:32;;;;;;;22.10;9.90;;;;;;;21.21;30.44;100035.36;103823;1291;59817;-82
2024/02/09 06:02:58;;;;;;;23.40;9.90;;;;;;;21.18;30.43;100037.23;104611;1285;59951;-79
2024/02/09 06:05:23;;;;;;;20.20;9.80;;;;;;;21.16;30.29;100034.36;104202;1290;62418;-81
2024/02/09 06:07:49;;;;;;;19.80;9.80;;;;;;;21.15;30.41;100036.05;104275;1289;59797;-81
2024/02/09 06:10:15;;;;;;;24.20;10.40;;;;;;;21.15;30.36;100039.86;104347;1289;60160;-79
2024/02/09 06:12:44;;;;;;;17.50;9.40;;;;;;;21.14;30.49;100040.12;104140;1291;61924;-81
2024/02/09 06:15:10;;;;;;;20.50;9.30;;;;;;;21.13;30.37;100040.52;104229;1290;73251;-80
2024/02/09 06:17:38;;;;;;;17.20;9.70;;;;;;;21.13;30.44;100038.55;103940;1290;59741;-79
2024/02/09 06:20:05;;;;;;;20.30;10.00;;;;;;;21.12;30.58;100037.55;104341;1292;60052;-79
2024/02/09 06:22:31;;;;;;;16.30;9.30;;;;;;;21.13;30.49;100035.34;104023;1291;61213;-79
2024/02/09 06:24:57;;;;;;;18.90;9.50;;;;;;;21.15;30.49;100035.70;104224;1290;59674;-80
2024/02/09 06:27:25;;;;;;;19.20;9.00;;;;;;;21.17;30.44;100035.00;103926;1290;61917;-80
2024/02/09 06:29:52;;;;;;;17.70;9.80;;;;;;;21.20;30.43;100037.10;104552;1295;60066;-79
2024/02/09 06:32:19;;;;;;;15.10;8.80;;;;;;;21.23;30.58;100044.02;104159;1290;60263;-78
2024/02/09 06:34:45;;;;;;;16.20;8.50;;;;;;;21.26;30.48;100047.69;104055;1293;72433;-81
2024/02/09 06:37:11;;;;;;;16.20;8.80;;;;;;;21.29;30.47;100050.31;104374;1289;61730;-81
2024/02/09 06:39:36;;;;;;;18.90;9.00;;;;;;;21.32;30.43;100053.14;104085;1291;59881;-79
2024/02/09 06:42:02;;;;;;;15.90;8.60;;;;;;;21.33;30.47;100055.88;103987;1291;59606;-79
2024/02/09 06:44:30;;;;;;;17.70;8.50;;;;;;;21.35;30.54;100051.01;103985;1292;60323;-79
2024/02/09 06:46:56;;;;;;;17.00;7.80;;;;;;;21.38;30.47;100054.54;104030;1294;61100;-79
2024/02/09 06:49:27;;;;;;;18.60;8.40;;;;;;;21.40;30.55;100056.48;103821;1294;59873;-78
2024/02/09 06:51:53;;;;;;;16.20;8.20;;;;;;;21.43;30.64;100062.52;103859;1294;60331;-80
2024/02/09 06:54:21;;;;;;;20.30;9.40;;;;;;;21.46;30.56;100063.37;103888;1294;60503;-81
2024/02/09 06:56:46;;;;;;;19.00;8.40;;;;;;;21.48;30.64;100062.52;103846;1295;73725;-81
2024/02/09 06:59:12;;;;;;;26.00;8.30;;;;;;;21.48;30.56;100063.58;104058;1293;59843;-81
2024/02/09 07:01:39;;;;;;;24.90;8.50;;;;;;;21.49;31.15;100072.06;104079;1298;60000;-80
2024/02/09 07:04:08;;;;;;;30.40;9.10;;;;;;;21.50;31.37;100075.92;103937;1301;59722;-79
2024/02/09 07:06:34;;;;;;;29.50;8.60;;;;;;;21.52;31.89;100080.20;104700;1294;73579;-80
2024/02/09 07:09:00;;;;;;;32.80;7.70;;;;;;;21.56;32.31;100085.43;103609;1293;62025;-80
2024/02/09 07:11:25;;;;;;;21.90;7.90;;;;;;;21.60;32.77;100088.14;103955;1293;59783;-80
2024/02/09 07:13:51;;;;;;;27.30;8.50;;;;;;;21.63;32.93;100088.27;103754;1294;62138;-80
2024/02/09 07:16:19;;;;;;;22.70;9.40;;;;;;;21.66;32.81;100093.58;104237;1293;59987;-80
2024/02/09 07:18:46;;;;;;;27.10;8.50;;;;;;;21.68;32.72;100095.21;104334;1289;59711;-80
2024/02/09 07:21:14;;;;;;;23.20;8.00;;;;;;;21.69;32.60;100094.02;104470;1290;59772;-81
2024/02/09 07:23:41;;;;;;;22.60;9.50;;;;;;;21.71;32.67;100094.74;104266;1289;72561;-81
2024/02/09 07:26:09;;;;;;;20.70;8.40;;;;;;;21.73;32.45;100095.50;104106;1289;59645;-80
2024/02/09 07:28:35;;;;;;;18.00;8.50;;;;;;;21.75;32.35;100094.41;104088;1289;59830;-80
2024/02/09 07:31:01;;;;;;;18.70;8.30;;;;;;;21.76;32.14;100090.58;103909;1289;59703;-80
2024/02/09 07:33:27;;;;;;;21.80;8.90;;;;;;;21.79;32.02;100087.00;103667;1290;60093;-79
2024/02/09 07:35:53;;;;;;;20.60;8.50;;;;;;;21.82;31.94;100087.02;104124;1290;59795;-80
2024/02/09 07:38:19;;;;;;;23.70;8.20;;;;;;;21.87;31.71;100087.36;104255;1289;59681;-79
2024/02/09 07:40:44;;;;;;;22.30;8.60;;;;;;;21.92;31.90;100085.64;104194;1290;59802;-79
2024/02/09 07:43:10;;;;;;;24.90;8.60;;;;;;;21.98;31.89;100082.98;104079;1291;59753;-79
2024/02/09 07:45:36;;;;;;;27.30;8.90;;;;;;;22.03;31.97;100079.67;104214;1291;59727;-79
2024/02/09 07:48:02;;;;;;;19.70;8.40;;;;;;;22.07;32.12;100074.48;104098;1290;72698;-79
2024/02/09 07:50:28;;;;;;;24.30;8.10;;;;;;;22.11;32.18;100072.36;103827;1290;59671;-78
2024/02/09 07:52:54;;;;;;;21.60;9.30;;;;;;;22.16;32.18;100077.34;104164;1289;59592;-78
2024/02/09 07:55:21;;;;;;;21.60;9.10;;;;;;;22.18;32.22;100075.36;103398;1289;60957;-79
2024/02/09 07:57:48;;;;;;;28.00;8.80;;;;;;;22.17;32.21;100078.67;103104;1291;59810;-80
2024/02/09 08:00:18;;;;;;;27.70;9.40;;;;;;;22.17;32.47;100075.63;103866;1288;59767;-79
2024/02/09 08:02:44;;;;;;;25.30;8.60;;;;;;;22.19;32.53;100074.38;103965;1291;59839;-78
2024/02/09 08:05:17;;;;;;;25.10;8.80;;;;;;;22.20;32.62;100074.40;104486;1289;73347;-81
2024/02/09 08:07:47;;;;;;;25.20;8.20;;;;;;;22.22;32.72;100072.45;104283;1290;74742;-78
2024/02/09 08:10:13;;;;;;;22.80;8.40;;;;;;;22.24;32.74;100074.65;104299;1291;60910;-80
2024/02/09 08:12:40;;;;;;;24.30;8.10;;;;;;;22.25;32.59;100082.41;104020;1291;61878;-80
2024/02/09 08:15:12;;;;;;;20.80;8.90;;;;;;;22.25;32.45;100085.10;104237;1290;60525;-79
2024/02/09 08:17:38;;;;;;;24.30;8.00;;;;;;;22.25;32.33;100081.32;104177;1289;74450;-80
2024/02/09 08:20:06;;;;;;;18.20;8.70;;;;;;;22.26;32.16;100078.20;103984;1291;60587;-80
2024/02/09 08:22:34;;;;;;;19.30;8.50;;;;;;;22.27;32.10;100076.33;104156;1293;60491;-79
2024/02/09 08:25:00;;;;;;;18.90;8.90;;;;;;;22.28;31.94;100069.80;104365;1291;72279;-80
2024/02/09 08:27:26;;;;;;;17.20;8.70;;;;;;;22.29;31.68;100068.12;103917;1289;60488;-79
2024/02/09 08:29:54;;;;;;;14.80;8.40;;;;;;;22.31;31.56;100073.73;104213;1290;60474;-79
2024/02/09 08:32:20;;;;;;;17.20;9.00;;;;;;;22.32;31.53;100068.60;104125;1290;61015;-80
2024/02/09 08:34:45;;;;;;;18.80;8.70;;;;;;;22.33;31.32;100072.40;104090;1298;60605;-80
2024/02/09 08:37:11;;;;;;;16.80;8.40;;;;;;;22.34;31.21;100076.98;103893;1295;60496;-80
2024/02/09 08:39:40;;;;;;;14.60;8.60;;;;;;;22.36;31.09;100079.01;104096;1289;60725;-80
2024/02/09 08:42:06;;;;;;;20.50;9.20;;;;;;;22.37;31.03;100076.80;104099;1289;59389;-80
2024/02/09 08:44:32;;;;;;;18.50;8.80;;;;;;;22.37;30.85;100076.77;103967;1291;60589;-81
2024/02/09 08:46:58;;;;;;;15.50;8.30;;;;;;;22.36;30.88;100073.21;104209;1291;60397;-80
2024/02/09 08:49:24;;;;;;;14.50;8.80;;;;;;;22.39;30.82;100071.25;103734;1289;60589;-80
2024/02/09 08:51:50;;;;;;;18.30;9.00;;;;;;;22.40;30.64;100077.54;104057;1290;60613;-80
2024/02/09 08:54:15;;;;;;;26.50;9.30;;;;;;;22.41;30.67;100070.14;104231;1290;60600;-81
2024/02/09 08:56:42;;;;;;;22.10;9.50;;;;;;;22.40;30.74;100068.27;104297;1291;61094;-81
2024/02/09 08:59:07;;;;;;;25.90;9.10;;;;;;;22.39;31.27;100063.45;103672;1291;60833;-81
2024/02/09 09:01:34;;;;;;;23.90;10.50;;;;;;;22.38;31.51;100054.93;104223;1290;60580;-78
2024/02/09 09:04:00;;;;;;;25.40;8.90;;;;;;;22.38;31.73;100049.27;104096;1291;60368;-80
2024/02/09 09:06:27;;;;;;;18.60;9.30;;;;;;;22.36;31.84;100049.43;104015;1291;60597;-80
2024/02/09 09:08:55;;;;;;;19.30;9.50;;;;;;;22.34;31.94;100051.73;103835;1290;73550;-82
2024/02/09 09:11:21;;;;;;;21.40;8.90;;;;;;;22.32;31.83;100046.75;104198;1290;60509;-80
2024/02/09 09:13:47;;;;;;;24.90;10.10;;;;;;;22.26;31.80;100055.96;104029;1289;60536;-79
2024/02/09 09:16:16;;;;;;;21.80;9.80;;;;;;;22.20;31.71;100052.73;104891;1289;60600;-79
2024/02/09 09:18:45;;;;;;;18.50;9.30;;;;;;;22.17;31.88;100051.41;104171;1290;74651;-80
2024/02/09 09:21:12;;;;;;;23.40;9.60;;;;;;;22.15;31.79;100045.13;103637;1291;60622;-80
2024/02/09 09:23:39;;;;;;;17.20;9.70;;;;;;;22.13;31.68;100037.93;105047;1291;60520;-80
2024/02/09 09:26:08;;;;;;;20.60;10.10;;;;;;;22.12;31.41;100037.33;104146;1290;71349;-79
2024/02/09 09:28:34;;;;;;;16.60;9.60;;;;;;;22.12;31.24;100039.66;103915;1290;73753;-79
2024/02/09 09:31:00;;;;;;;21.30;9.00;;;;;;;22.11;31.29;100043.67;103768;1290;60543;-79
2024/02/09 09:33:26;;;;;;;18.90;9.60;;;;;;;22.11;31.17;100050.32;104013;1290;60572;-79
2024/02/09 09:36:00;;;;;;;18.80;9.60;;;;;;;22.10;30.95;100054.48;104043;1291;60558;-80
2024/02/09 09:38:28;;;;;;;16.30;9.30;;;;;;;22.10;30.88;100049.66;103894;1289;74971;-80
2024/02/09 09:40:57;;;;;;;20.80;9.50;;;;;;;22.10;30.86;100045.00;104133;1289;60509;-80
2024/02/09 09:43:24;;;;;;;20.00;9.20;;;;;;;22.10;30.87;100049.69;103890;1294;60025;-79
2024/02/09 09:45:58;;;;;;;26.70;9.10;;;;;;;22.10;30.70;100054.02;104442;1290;72546;-80
2024/02/09 09:48:29;;;;;;;22.50;10.20;;;;;;;22.12;31.55;100052.92;106164;1290;73635;-78
2024/02/09 09:50:55;;;;;;;26.80;8.90;;;;;;;22.18;32.40;100047.98;105990;1289;58413;-79
2024/02/09 09:53:21;;;;;;;28.50;9.90;;;;;;;22.22;32.97;100047.77;104457;1290;59378;-79
2024/02/09 09:55:47;;;;;;;35.10;9.80;;;;;;;22.23;33.24;100045.70;104297;1290;61277;-78
2024/02/09 09:58:13;;;;;;;36.90;10.10;;;;;;;22.19;33.34;100038.34;104513;1289;60565;-78
2024/02/09 10:00:41;;;;;;;35.10;9.70;;;;;;;22.20;33.76;100041.67;104120;1291;62148;-79
2024/02/09 10:03:07;;;;;;;29.20;11.50;;;;;;;22.21;33.74;100039.39;104707;1290;60610;-78
2024/02/09 10:05:37;;;;;;;29.30;10.80;;;;;;;22.18;33.30;100030.86;104541;1291;59268;-79
2024/02/09 10:08:02;;;;;;;30.20;10.80;;;;;;;22.17;33.06;100029.92;104169;1291;74721;-79
2024/02/09 10:10:29;;;;;;;38.60;10.80;;;;;;;22.15;33.03;100028.27;104515;1289;60409;-79
2024/02/09 10:13:11;;;;;;;39.20;9.80;;;;;;;22.18;33.38;100024.95;104533;1291;60508;-79
2024/02/09 10:15:47;;;;;;;33.70;9.40;;;;;;;22.23;33.81;100016.44;104717;1290;73150;-80
2024/02/09 10:18:13;;;;;;;25.60;9.70;;;;;;;22.28;34.28;100012.64;104637;1290;73726;-80
2024/02/09 10:20:41;;;;;;;29.20;11.20;;;;;;;22.26;33.99;100002.08;104317;1293;60288;-80
2024/02/09 10:23:07;;;;;;;22.10;10.20;;;;;;;22.22;33.58;99997.23;104600;1289;60498;-79
2024/02/09 10:25:33;;;;;;;25.40;9.40;;;;;;;22.19;33.44;99992.85;104464;1289;60766;-79
2024/02/09 10:27:59;;;;;;;22.20;9.80;;;;;;;22.17;33.20;99985.84;104044;1293;60524;-79
2024/02/09 10:30:31;;;;;;;33.00;9.90;;;;;;;22.14;33.04;99979.26;104002;1289;59460;-79
2024/02/09 10:32:57;;;;;;;20.30;9.40;;;;;;;22.11;32.78;99976.30;103986;1289;60545;-80
2024/02/09 10:35:23;;;;;;;22.10;9.80;;;;;;;22.05;32.40;99976.29;104036;1294;60583;-79
2024/02/09 10:37:52;;;;;;;21.40;10.10;;;;;;;22.02;32.34;99976.07;104087;1290;60556;-81
2024/02/09 10:40:19;;;;;;;21.40;9.60;;;;;;;22.03;32.28;99976.16;104030;1291;60474;-81
2024/02/09 10:42:44;;;;;;;26.80;9.60;;;;;;;22.04;32.20;99969.58;104144;1293;60531;-80
2024/02/09 10:45:11;;;;;;;29.00;9.30;;;;;;;22.09;32.98;99965.38;104025;1293;60500;-80
2024/02/09 10:47:37;;;;;;;28.70;9.30;;;;;;;22.16;33.71;99957.39;103968;1294;60673;-80
2024/02/09 10:50:04;;;;;;;19.90;9.30;;;;;;;22.19;33.78;99958.61;104021;1291;60597;-79
2024/02/09 10:52:30;;;;;;;17.30;9.00;;;;;;;22.19;33.72;99950.17;104086;1295;60512;-81
2024/02/09 10:54:59;;;;;;;29.90;10.10;;;;;;;22.20;34.06;99948.42;104255;1291;60505;-81
2024/02/09 10:57:28;;;;;;;;;;;;;;;22.22;34.01;99948.45;104227;1291;73484;-81
2024/02/09 10:59:53;;;;;;;24.40;9.20;;;;;;;22.21;34.12;99946.06;104321;1290;60541;-80
2024/02/09 11:02:19;;;;;;;23.00;8.90;;;;;;;22.21;34.08;99939.60;104644;1292;60601;-80
2024/02/09 11:04:46;;;;;;;28.30;9.10;;;;;;;22.19;33.76;99933.29;104631;1291;60498;-81
2024/02/09 11:07:14;;;;;;;34.90;9.00;;;;;;;22.19;33.74;99928.47;104351;1291;60611;-80
2024/02/09 11:09:46;;;;;;;25.90;8.90;;;;;;;22.18;33.85;99920.49;105007;1291;60932;-80
2024/02/09 11:12:12;;;;;;;23.80;9.20;;;;;;;22.19;33.84;99919.51;104552;1289;61850;-79
2024/02/09 11:14:40;;;;;;;24.60;8.70;;;;;;;22.17;33.54;99919.51;104277;1289;60422;-80
2024/02/09 11:17:09;;;;;;;24.60;8.90;;;;;;;22.18;33.63;99916.93;104530;1290;75117;-79
2024/02/09 11:19:38;;;;;;;19.40;8.00;;;;;;;22.20;33.80;99918.83;104232;1291;60115;-80
2024/02/09 11:22:04;;;;;;;22.00;9.50;;;;;;;22.23;33.82;99921.98;104495;1291;60706;-81
2024/02/09 11:24:31;;;;;;;29.70;9.90;;;;;;;22.26;33.66;99916.55;104283;1291;73503;-81
2024/02/09 11:26:59;;;;;;;33.30;9.20;;;;;;;22.29;33.66;99907.49;104944;1290;73659;-80
2024/02/09 11:29:25;;;;;;;20.40;8.70;;;;;;;22.31;33.52;99905.17;104079;1294;61534;-79
2024/02/09 11:32:01;;;;;;;27.00;9.00;;;;;;;22.30;33.38;99901.87;104204;1291;60566;-79
2024/02/09 11:34:28;;;;;;;19.40;8.60;;;;;;;22.28;33.34;99900.93;104188;1294;73744;-78
2024/02/09 11:36:58;;;;;;;18.30;8.00;;;;;;;22.29;33.28;99897.45;104173;1296;60650;-79
2024/02/09 11:39:25;;;;;;;24.10;8.50;;;;;;;22.30;33.36;99900.06;104355;1290;60453;-81
2024/02/09 11:41:53;;;;;;;25.30;8.30;;;;;;;22.29;33.25;99898.69;104196;1290;60467;-80
2024/02/09 11:44:20;;;;;;;16.50;7.90;;;;;;;22.28;33.06;99898.46;104079;1288;72494;-78
2024/02/09 11:46:46;;;;;;;19.00;7.60;;;;;;;22.26;32.91;99894.27;104460;1291;60392;-80
2024/02/09 11:49:12;;;;;;;20.20;7.60;;;;;;;22.26;32.79;99891.59;104258;1293;60427;-79
2024/02/09 11:51:38;;;;;;;17.50;7.00;;;;;;;22.26;32.74;99895.23;103946;1290;60631;-79
2024/02/09 11:54:10;;;;;;;17.30;6.80;;;;;;;22.24;32.70;99896.80;103833;1291;58535;-79
2024/02/09 11:56:36;;;;;;;17.60;6.90;;;;;;;22.24;32.60;99890.23;104140;1290;72571;-78
2024/02/09 11:59:04;;;;;;;19.00;8.00;;;;;;;22.22;32.42;99883.21;104048;1293;59224;-80
2024/02/09 12:01:29;;;;;;;18.20;7.20;;;;;;;22.22;32.46;99884.26;104716;1290;60995;-81
2024/02/09 12:03:56;;;;;;;25.90;7.00;;;;;;;22.24;32.35;99881.20;104876;1290;73668;-82
2024/02/09 12:06:22;;;;;;;27.60;7.30;;;;;;;22.30;32.66;99879.79;104526;1295;59378;-80
2024/02/09 12:08:51;;;;;;;24.60;6.30;;;;;;;22.34;32.90;99873.73;104814;1290;60634;-80
2024/02/09 12:11:18;;;;;;;26.60;6.60;;;;;;;22.35;33.09;99870.45;104832;1291;62083;-81
2024/02/09 12:13:47;;;;;;;24.00;6.40;;;;;;;22.35;33.04;99875.58;104755;1291;72757;-82
2024/02/09 12:16:16;;;;;;;21.90;6.00;;;;;;;22.39;33.16;99876.86;104669;1295;74906;-79
2024/02/09 12:18:43;;;;;;;;;;;;;;;22.42;33.13;99876.58;104729;1290;60507;-79
2024/02/09 12:21:09;;;;;;;20.60;5.90;;;;;;;22.38;32.97;99865.45;104747;1289;60175;-79
2024/02/09 12:23:35;;;;;;;24.80;6.00;;;;;;;22.39;32.69;99866.88;104198;1291;60486;-80
2024/02/09 12:26:05;;;;;;;20.70;6.60;;;;;;;22.36;32.62;99860.13;104294;1294;60575;-79
2024/02/09 12:28:33;;;;;;;30.90;5.90;;;;;;;22.37;32.86;99858.23;104061;1291;60487;-81
2024/02/09 12:30:59;;;;;;;30.40;6.20;;;;;;;22.40;32.94;99855.66;104302;1290;61723;-80
2024/02/09 12:33:24;;;;;;;26.60;6.40;;;;;;;22.42;33.28;99852.92;104307;1297;60510;-81
2024/02/09 12:35:50;;;;;;;22.70;6.20;;;;;;;22.45;33.42;99855.38;104224;1291;60663;-79
2024/02/09 12:38:20;;;;;;;22.40;5.50;;;;;;;22.46;33.55;99852.91;103979;1292;60595;-81
2024/02/09 12:40:48;;;;;;;14.60;5.10;;;;;;;22.48;33.47;99848.42;104277;1296;60365;-79
2024/02/09 12:43:19;;;;;;;15.50;5.60;;;;;;;22.49;33.58;99849.77;104165;1289;72732;-81
2024/02/09 12:45:46;;;;;;;21.80;5.20;;;;;;;22.51;33.41;99849.58;104060;1291;73734;-79
2024/02/09 12:48:12;;;;;;;16.10;5.30;;;;;;;22.52;33.41;99850.36;104301;1291;60333;-78
2024/02/09 12:50:38;;;;;;;19.10;5.80;;;;;;;22.53;33.25;99851.98;104280;1291;60644;-80
2024/02/09 12:53:05;;;;;;;15.20;5.30;;;;;;;22.52;33.11;99854.77;104212;1290;60611;-79
2024/02/09 12:55:33;;;;;;;18.00;5.50;;;;;;;22.50;32.98;99856.89;104391;1290;60499;-79
2024/02/09 12:57:59;;;;;;;19.30;5.50;;;;;;;22.49;33.00;99857.87;104397;1289;60439;-79
2024/02/09 13:00:25;;;;;;;25.90;5.10;;;;;;;22.48;33.10;99849.89;104217;1291;60650;-80
2024/02/09 13:02:51;;;;;;;15.70;4.60;;;;;;;22.48;33.02;99846.45;104562;1291;59342;-80
2024/02/09 13:05:16;;;;;;;18.90;5.20;;;;;;;22.43;32.64;99847.69;104479;1291;60602;-80
2024/02/09 13:07:43;;;;;;;13.80;5.10;;;;;;;22.36;32.53;99851.66;104651;1290;60511;-80
2024/02/09 13:10:10;;;;;;;13.50;4.80;;;;;;;22.34;32.51;99849.92;104351;1291;60579;-81
2024/02/09 13:12:37;;;;;;;17.50;5.00;;;;;;;22.32;32.42;99849.91;104202;1289;60589;-79